createdAt,value
2023-04-24T00:00:53.061Z,2.27
2023-04-24T00:03:20.086Z,2.73
2023-04-24T00:05:47.151Z,2.67
2023-04-24T00:08:14.000Z,2.50
2023-04-24T00:10:40.858Z,2.07
2023-04-24T00:13:08.527Z,2.43
2023-04-24T00:15:35.587Z,2.50
2023-04-24T00:18:02.568Z,2.20
2023-04-24T00:20:29.710Z,2.63
2023-04-24T00:22:57.139Z,2.00
2023-04-24T00:25:23.924Z,2.10
2023-04-24T00:27:50.799Z,1.50
2023-04-24T00:30:17.878Z,2.23
2023-04-24T00:32:44.750Z,2.40
2023-04-24T00:35:11.636Z,2.30
2023-04-24T00:37:38.529Z,2.50
2023-04-24T00:40:06.475Z,2.20
2023-04-24T00:42:34.334Z,2.50
2023-04-24T00:45:03.396Z,3.10
2023-04-24T00:47:31.040Z,2.70
2023-04-24T00:49:57.944Z,3.17
2023-04-24T00:52:24.859Z,2.97
2023-04-24T00:54:51.778Z,3.10
2023-04-24T00:57:19.165Z,3.60
2023-04-24T00:59:46.791Z,2.90
2023-04-24T01:02:15.096Z,2.40
2023-04-24T01:04:42.266Z,2.97
2023-04-24T01:07:10.537Z,2.80
2023-04-24T01:09:42.378Z,2.50
2023-04-24T01:12:09.862Z,2.33
2023-04-24T01:14:37.630Z,2.20
2023-04-24T01:17:04.494Z,2.70
2023-04-24T01:19:31.396Z,2.37
2023-04-24T01:22:03.622Z,2.60
2023-04-24T01:24:31.260Z,2.50
2023-04-24T01:26:58.192Z,3.10
2023-04-24T01:29:25.120Z,1.73
2023-04-24T01:31:52.477Z,2.53
2023-04-24T01:34:19.935Z,2.70
2023-04-24T01:36:47.423Z,1.90
2023-04-24T01:39:14.681Z,2.50
2023-04-24T01:41:41.654Z,2.80
2023-04-24T01:44:08.872Z,2.87
2023-04-24T01:46:36.245Z,2.43
2023-04-24T01:49:03.554Z,2.27
2023-04-24T01:51:30.604Z,2.10
2023-04-24T01:53:57.494Z,2.47
2023-04-24T01:56:24.793Z,2.60
2023-04-24T01:58:55.234Z,2.60
2023-04-24T02:01:22.352Z,3.10
2023-04-24T02:03:49.400Z,3.00
2023-04-24T02:06:16.607Z,3.03
2023-04-24T02:08:43.639Z,2.70
2023-04-24T02:11:11.200Z,1.93
2023-04-24T02:13:37.999Z,2.60
2023-04-24T02:16:05.219Z,3.00
2023-04-24T02:18:32.285Z,2.50
2023-04-24T02:20:59.169Z,2.60
2023-04-24T02:23:26.011Z,2.70
2023-04-24T02:25:52.838Z,2.80
2023-04-24T02:28:20.126Z,2.93
2023-04-24T02:30:47.035Z,2.97
2023-04-24T02:33:13.880Z,2.43
2023-04-24T02:35:40.733Z,2.97
2023-04-24T02:38:07.609Z,2.30
2023-04-24T02:40:34.507Z,2.70
2023-04-24T02:43:01.382Z,3.07
2023-04-24T02:45:28.214Z,3.07
2023-04-24T02:47:55.074Z,3.47
2023-04-24T02:50:21.922Z,3.20
2023-04-24T02:52:48.841Z,2.40
2023-04-24T02:55:15.709Z,2.83
2023-04-24T02:57:42.560Z,2.67
2023-04-24T03:00:10.921Z,3.17
2023-04-24T03:02:38.071Z,3.07
2023-04-24T03:05:06.041Z,3.57
2023-04-24T03:07:32.865Z,2.60
2023-04-24T03:09:59.961Z,3.03
2023-04-24T03:12:26.852Z,2.53
2023-04-24T03:14:53.763Z,2.93
2023-04-24T03:17:20.618Z,2.90
2023-04-24T03:19:47.420Z,3.07
2023-04-24T03:22:14.341Z,3.17
2023-04-24T03:24:41.177Z,2.53
2023-04-24T03:27:08.049Z,2.60
2023-04-24T03:29:34.915Z,3.00
2023-04-24T03:32:02.144Z,2.57
2023-04-24T03:34:29.125Z,3.30
2023-04-24T03:36:55.929Z,2.90
2023-04-24T03:39:22.768Z,3.10
2023-04-24T03:41:49.583Z,3.50
2023-04-24T03:44:16.375Z,3.20
2023-04-24T03:46:43.207Z,3.43
2023-04-24T03:49:10.336Z,3.00
2023-04-24T03:51:37.135Z,2.57
2023-04-24T03:54:04.089Z,2.40
2023-04-24T03:56:30.978Z,2.57
2023-04-24T03:58:57.809Z,2.03
2023-04-24T04:01:24.613Z,2.53
2023-04-24T04:03:51.612Z,2.60
2023-04-24T04:06:18.890Z,2.20
2023-04-24T04:08:45.771Z,2.50
2023-04-24T04:11:12.779Z,2.80
2023-04-24T04:13:39.691Z,2.10
2023-04-24T04:16:06.700Z,2.43
2023-04-24T04:18:33.735Z,1.90
2023-04-24T04:21:00.604Z,2.30
2023-04-24T04:23:27.494Z,2.40
2023-04-24T04:25:54.378Z,2.87
2023-04-24T04:28:21.316Z,2.80
2023-04-24T04:30:48.212Z,1.90
2023-04-24T04:33:15.071Z,1.83
2023-04-24T04:35:42.329Z,2.53
2023-04-24T04:38:09.134Z,1.80
2023-04-24T04:40:36.029Z,2.23
2023-04-24T04:43:02.868Z,1.80
2023-04-24T04:45:29.790Z,2.20
2023-04-24T04:47:56.859Z,2.17
2023-04-24T04:50:24.025Z,1.83
2023-04-24T04:52:50.960Z,2.13
2023-04-24T04:55:17.787Z,1.53
2023-04-24T04:57:44.677Z,1.80
2023-04-24T05:00:12.453Z,1.80
2023-04-24T05:02:40.333Z,2.87
2023-04-24T05:05:08.591Z,2.33
2023-04-24T05:07:36.015Z,2.60
2023-04-24T05:10:03.990Z,1.90
2023-04-24T05:12:30.859Z,1.90
2023-04-24T05:14:57.660Z,2.00
2023-04-24T05:17:24.567Z,2.23
2023-04-24T05:19:51.334Z,2.00
2023-04-24T05:22:18.210Z,1.70
2023-04-24T05:24:45.039Z,1.90
2023-04-24T05:27:11.960Z,1.87
2023-04-24T05:29:38.855Z,1.97
2023-04-24T05:32:05.706Z,2.00
2023-04-24T05:34:32.661Z,2.00
2023-04-24T05:36:59.561Z,1.50
2023-04-24T05:39:26.386Z,1.30
2023-04-24T05:41:53.246Z,1.40
2023-04-24T05:44:20.078Z,1.23
2023-04-24T05:46:46.934Z,1.30
2023-04-24T05:49:13.903Z,1.40
2023-04-24T05:51:40.735Z,1.60
2023-04-24T05:54:07.558Z,1.90
2023-04-24T05:56:34.429Z,1.80
2023-04-24T05:59:01.251Z,1.83
2023-04-24T06:01:28.131Z,2.10
2023-04-24T06:03:55.100Z,1.53
2023-04-24T06:06:22.451Z,2.27
2023-04-24T06:08:49.253Z,1.77
2023-04-24T06:11:16.217Z,1.80
2023-04-24T06:13:43.229Z,2.13
2023-04-24T06:16:11.201Z,2.20
2023-04-24T06:18:38.172Z,2.23
2023-04-24T06:21:05.317Z,2.37
2023-04-24T06:23:32.192Z,2.30
2023-04-24T06:25:59.722Z,1.90
2023-04-24T06:28:27.867Z,2.40
2023-04-24T06:30:54.763Z,2.37
2023-04-24T06:33:23.688Z,1.90
2023-04-24T06:35:50.972Z,2.23
2023-04-24T06:38:17.912Z,2.53
2023-04-24T06:40:44.702Z,2.30
2023-04-24T06:43:11.638Z,2.67
2023-04-24T06:45:40.084Z,2.00
2023-04-24T06:48:07.034Z,2.50
2023-04-24T06:50:33.953Z,2.90
2023-04-24T06:53:00.773Z,2.53
2023-04-24T06:55:27.646Z,2.90
2023-04-24T06:57:54.508Z,2.87
2023-04-24T07:00:21.562Z,3.37
2023-04-24T07:02:48.760Z,2.37
2023-04-24T07:05:15.890Z,2.20
2023-04-24T07:07:42.745Z,2.10
2023-04-24T07:10:10.102Z,2.50
2023-04-24T07:12:37.128Z,2.40
2023-04-24T07:15:04.480Z,1.93
2023-04-24T07:17:31.338Z,2.47
2023-04-24T07:19:58.230Z,2.87
2023-04-24T07:22:25.210Z,2.30
2023-04-24T07:24:52.040Z,2.40
2023-04-24T07:27:18.966Z,2.83
2023-04-24T07:29:46.070Z,2.60
2023-04-24T07:32:13.581Z,2.33
2023-04-24T07:34:40.672Z,1.83
2023-04-24T07:37:07.550Z,2.07
2023-04-24T07:39:34.418Z,1.80
2023-04-24T07:42:01.231Z,2.13
2023-04-24T07:44:28.075Z,1.70
2023-04-24T07:46:55.281Z,2.10
2023-04-24T07:49:22.161Z,1.93
2023-04-24T07:51:50.289Z,1.90
2023-04-24T07:54:17.318Z,1.97
2023-04-24T07:56:45.318Z,2.10
2023-04-24T07:59:12.711Z,1.60
2023-04-24T08:01:39.644Z,1.60
2023-04-24T08:04:06.950Z,2.27
2023-04-24T08:06:34.107Z,1.87
2023-04-24T08:09:01.886Z,1.80
2023-04-24T08:11:28.787Z,2.23
2023-04-24T08:13:55.881Z,2.30
2023-04-24T08:16:23.490Z,1.80
2023-04-24T08:18:50.797Z,1.97
2023-04-24T08:21:17.704Z,1.40
2023-04-24T08:23:44.623Z,1.97
2023-04-24T08:26:11.846Z,1.53
2023-04-24T08:28:39.671Z,2.17
2023-04-24T08:31:06.905Z,1.70
2023-04-24T08:33:33.785Z,2.10
2023-04-24T08:36:02.941Z,1.93
2023-04-24T08:38:29.889Z,1.93
2023-04-24T08:41:00.097Z,1.80
2023-04-24T08:43:28.357Z,2.10
2023-04-24T08:45:58.043Z,1.53
2023-04-24T08:48:31.256Z,1.70
2023-04-24T08:51:00.455Z,1.80
2023-04-24T08:53:28.229Z,1.70
2023-04-24T08:55:56.742Z,1.80
2023-04-24T08:58:26.757Z,2.33
2023-04-24T09:00:56.857Z,1.83
2023-04-24T09:03:25.318Z,1.30
2023-04-24T09:05:54.768Z,1.57
2023-04-24T09:08:26.060Z,1.53
2023-04-24T09:10:53.111Z,1.70
2023-04-24T09:13:22.842Z,1.90
2023-04-24T09:15:50.005Z,1.50
2023-04-24T09:18:16.948Z,1.20
2023-04-24T09:21:04.670Z,1.37
2023-04-24T09:23:33.204Z,1.40
2023-04-24T09:26:02.904Z,1.40
2023-04-24T09:28:37.425Z,2.17
2023-04-24T09:31:14.956Z,1.73
2023-04-24T09:33:54.955Z,1.60
2023-04-24T09:36:32.988Z,1.23
2023-04-24T09:39:04.542Z,1.13
2023-04-24T09:41:33.633Z,1.30
2023-04-24T09:44:18.916Z,1.50
2023-04-24T09:46:51.247Z,1.50
2023-04-24T09:49:26.293Z,1.27
2023-04-24T09:52:03.350Z,1.60
2023-04-24T09:54:30.436Z,1.30
2023-04-24T09:56:57.270Z,1.40
2023-04-24T09:59:24.236Z,1.63
2023-04-24T10:01:51.086Z,1.20
2023-04-24T10:04:23.262Z,1.27
2023-04-24T10:06:52.516Z,1.17
2023-04-24T10:09:22.491Z,1.10
2023-04-24T10:11:52.096Z,1.20
2023-04-24T10:14:23.098Z,1.00
2023-04-24T10:16:54.033Z,1.10
2023-04-24T10:19:20.957Z,0.90
2023-04-24T10:21:48.542Z,1.30
2023-04-24T10:24:17.594Z,1.57
2023-04-24T10:26:46.295Z,1.30
2023-04-24T10:29:15.535Z,0.90
2023-04-24T10:31:42.615Z,0.97
2023-04-24T10:34:11.086Z,1.00
2023-04-24T10:36:46.771Z,0.90
2023-04-24T10:39:15.824Z,1.10
2023-04-24T10:41:42.949Z,0.90
2023-04-24T10:44:16.323Z,0.90
2023-04-24T10:46:48.236Z,1.07
2023-04-24T10:49:15.601Z,1.20
2023-04-24T10:51:53.410Z,1.27
2023-04-24T10:54:48.074Z,0.80
2023-04-24T10:57:20.802Z,0.80
2023-04-24T11:00:14.084Z,1.53
2023-04-24T11:02:42.307Z,0.80
2023-04-24T11:05:09.818Z,1.10
2023-04-24T11:08:24.734Z,1.23
2023-04-24T11:11:03.397Z,1.00
2023-04-24T11:13:55.181Z,0.83
2023-04-24T11:16:29.951Z,1.40
2023-04-24T11:19:20.212Z,1.10
2023-04-24T11:21:55.885Z,0.93
2023-04-24T11:24:32.669Z,1.00
2023-04-24T11:27:05.418Z,0.93
2023-04-24T11:30:11.596Z,0.83
2023-04-24T11:32:41.845Z,0.83
2023-04-24T11:35:19.620Z,0.90
2023-04-24T11:40:23.981Z,1.23
2023-04-24T11:42:52.969Z,1.00
2023-04-24T11:45:24.784Z,1.00
2023-04-24T11:47:52.273Z,1.00
2023-04-24T11:50:23.715Z,1.00
2023-04-24T11:52:52.053Z,0.93
2023-04-24T11:55:18.762Z,1.00
2023-04-24T11:57:51.554Z,0.90
2023-04-24T12:00:26.614Z,0.70
2023-04-24T12:03:09.674Z,1.30
2023-04-24T12:05:37.435Z,0.93
2023-04-24T12:08:05.177Z,1.10
2023-04-24T12:10:34.342Z,0.90
2023-04-24T12:13:01.327Z,1.10
2023-04-24T12:15:29.225Z,1.30
2023-04-24T12:17:57.258Z,1.20
2023-04-24T12:20:30.705Z,1.00
2023-04-24T12:22:59.989Z,1.20
2023-04-24T12:25:29.335Z,1.17
2023-04-24T12:28:06.584Z,1.47
2023-04-24T12:30:39.333Z,1.70
2023-04-24T12:33:06.313Z,1.80
2023-04-24T12:35:35.269Z,2.10
2023-04-24T12:38:13.958Z,1.70
2023-04-24T12:40:42.857Z,1.90
2023-04-24T12:43:18.539Z,2.43
2023-04-24T12:45:46.053Z,1.60
2023-04-24T12:48:13.575Z,1.80
2023-04-24T12:50:40.539Z,2.20
2023-04-24T12:53:09.224Z,2.53
2023-04-24T12:55:36.954Z,1.70
2023-04-24T12:58:03.805Z,1.63
2023-04-24T13:00:30.914Z,1.53
2023-04-24T13:02:58.245Z,1.77
2023-04-24T13:05:25.653Z,1.90
2023-04-24T13:07:52.669Z,1.60
2023-04-24T13:10:19.679Z,1.70
2023-04-24T13:12:46.689Z,1.50
2023-04-24T13:15:13.910Z,1.80
2023-04-24T13:17:40.979Z,2.00
2023-04-24T13:20:08.722Z,1.50
2023-04-24T13:22:35.587Z,1.70
2023-04-24T13:25:02.472Z,1.93
2023-04-24T13:27:29.380Z,1.70
2023-04-24T13:29:56.190Z,1.67
2023-04-24T13:32:23.152Z,2.00
2023-04-24T13:34:50.180Z,1.80
2023-04-24T13:37:17.242Z,1.87
2023-04-24T13:39:44.084Z,2.03
2023-04-24T13:42:11.059Z,1.67
2023-04-24T13:44:38.264Z,1.93
2023-04-24T13:47:05.195Z,1.80
2023-04-24T13:49:32.154Z,1.73
2023-04-24T13:51:59.030Z,1.53
2023-04-24T13:54:25.946Z,1.70
2023-04-24T13:56:54.108Z,1.80
2023-04-24T13:59:21.977Z,2.10
2023-04-24T14:01:49.154Z,2.03
2023-04-24T14:04:16.653Z,2.13
2023-04-24T14:06:45.114Z,2.00
2023-04-24T14:09:12.157Z,2.23
2023-04-24T14:11:39.095Z,1.90
2023-04-24T14:14:06.874Z,2.17
2023-04-24T14:16:33.956Z,1.97
2023-04-24T14:19:00.884Z,2.47
2023-04-24T14:21:27.893Z,2.03
2023-04-24T14:23:54.781Z,1.70
2023-04-24T14:26:21.718Z,2.10
2023-04-24T14:28:48.586Z,1.57
2023-04-24T14:31:15.514Z,2.33
2023-04-24T14:33:42.508Z,2.27
2023-04-24T14:36:09.589Z,1.63
2023-04-24T14:38:36.418Z,1.50
2023-04-24T14:41:07.483Z,1.67
2023-04-24T14:43:36.942Z,1.50
2023-04-24T14:46:04.761Z,1.10
2023-04-24T14:48:31.622Z,1.37
2023-04-24T14:50:58.661Z,1.23
2023-04-24T14:53:25.545Z,1.20
2023-04-24T14:55:52.467Z,1.40
2023-04-24T14:58:19.514Z,1.50
2023-04-24T15:00:46.736Z,1.67
2023-04-24T15:03:13.906Z,1.53
2023-04-24T15:05:41.260Z,1.50
2023-04-24T15:08:08.212Z,1.50
2023-04-24T15:10:35.136Z,1.30
2023-04-24T15:13:02.048Z,1.10
2023-04-24T15:15:28.920Z,1.73
2023-04-24T15:17:55.843Z,1.50
2023-04-24T15:20:22.804Z,1.70
2023-04-24T15:22:49.639Z,1.10
2023-04-24T15:25:16.510Z,1.23
2023-04-24T15:27:47.377Z,2.13
2023-04-24T15:30:15.186Z,1.73
2023-04-24T15:32:42.202Z,3.20
2023-04-24T15:35:10.525Z,2.20
2023-04-24T15:37:39.587Z,4.90
2023-04-24T15:40:07.579Z,10.13
2023-04-24T15:42:34.428Z,9.37
2023-04-24T15:45:01.325Z,5.47
2023-04-24T15:47:28.344Z,5.43
2023-04-24T15:49:55.326Z,6.83
2023-04-24T15:52:22.521Z,6.10
2023-04-24T15:54:49.645Z,7.90
2023-04-24T15:57:16.606Z,1.73
2023-04-24T15:59:44.099Z,1.80
2023-04-24T16:02:14.072Z,2.00
2023-04-24T16:04:41.095Z,1.93
2023-04-24T16:07:08.233Z,1.87
2023-04-24T16:09:35.006Z,1.30
2023-04-24T16:12:02.133Z,1.40
2023-04-24T16:14:31.174Z,1.07
2023-04-24T16:17:11.346Z,1.30
2023-04-24T16:19:39.185Z,1.80
2023-04-24T16:22:06.128Z,2.47
2023-04-24T16:24:32.955Z,1.60
2023-04-24T16:26:59.736Z,2.27
2023-04-24T16:29:26.603Z,1.50
2023-04-24T16:31:56.496Z,1.60
2023-04-24T16:34:26.820Z,1.60
2023-04-24T16:36:55.248Z,1.90
2023-04-24T16:39:24.374Z,3.13
2023-04-24T16:41:51.317Z,1.70
2023-04-24T16:44:18.117Z,2.77
2023-04-24T16:46:45.039Z,2.10
2023-04-24T16:49:12.159Z,2.30
2023-04-24T16:51:39.003Z,2.50
2023-04-24T16:54:05.897Z,1.90
2023-04-24T16:56:32.711Z,2.13
2023-04-24T16:58:59.604Z,1.90
2023-04-24T17:01:26.507Z,2.37
2023-04-24T17:03:53.564Z,3.10
2023-04-24T17:06:20.897Z,2.47
2023-04-24T17:08:47.994Z,2.77
2023-04-24T17:11:15.009Z,2.83
2023-04-24T17:13:42.289Z,10.67
2023-04-24T17:16:09.337Z,3.43
2023-04-24T17:18:36.223Z,4.40
2023-04-24T17:21:03.080Z,3.87
2023-04-24T17:23:29.923Z,3.60
2023-04-24T17:25:56.801Z,4.17
2023-04-24T17:28:30.170Z,4.33
2023-04-24T17:30:59.852Z,3.00
2023-04-24T17:33:31.365Z,3.40
2023-04-24T17:35:59.873Z,2.30
2023-04-24T17:38:26.709Z,4.00
2023-04-24T17:40:53.628Z,3.00
2023-04-24T17:43:21.067Z,3.50
2023-04-24T17:45:50.128Z,3.40
2023-04-24T17:48:19.083Z,3.20
2023-04-24T17:50:46.855Z,3.87
2023-04-24T17:53:13.755Z,3.13
2023-04-24T17:55:41.491Z,3.30
2023-04-24T17:58:08.482Z,2.70
2023-04-24T18:00:36.257Z,3.10
2023-04-24T18:03:04.453Z,2.40
2023-04-24T18:05:35.152Z,2.73
2023-04-24T18:08:02.598Z,2.53
2023-04-24T18:10:31.711Z,2.97
2023-04-24T18:12:59.523Z,3.10
2023-04-24T18:15:27.127Z,3.07
2023-04-24T18:17:55.031Z,3.03
2023-04-24T18:20:22.236Z,2.67
2023-04-24T18:22:49.763Z,2.77
2023-04-24T18:25:17.399Z,3.20
2023-04-24T18:27:44.902Z,3.70
2023-04-24T18:30:14.875Z,3.53
2023-04-24T18:32:43.780Z,3.40
2023-04-24T18:35:11.326Z,2.70
2023-04-24T18:37:38.729Z,2.77
2023-04-24T18:40:06.787Z,3.03
2023-04-24T18:42:34.450Z,3.00
2023-04-24T18:45:01.533Z,2.77
2023-04-24T18:47:29.335Z,2.30
2023-04-24T18:49:57.003Z,3.03
2023-04-24T18:52:25.255Z,2.97
2023-04-24T18:54:52.665Z,3.50
2023-04-24T18:57:20.132Z,2.90
2023-04-24T18:59:47.068Z,3.13
2023-04-24T19:02:14.287Z,2.83
2023-04-24T19:04:42.774Z,2.70
2023-04-24T19:07:09.882Z,3.00
2023-04-24T19:09:36.897Z,2.83
2023-04-24T19:12:04.187Z,3.37
2023-04-24T19:14:31.049Z,3.03
2023-04-24T19:16:57.938Z,2.63
2023-04-24T19:19:26.657Z,3.30
2023-04-24T19:21:53.535Z,3.40
2023-04-24T19:24:20.770Z,2.67
2023-04-24T19:26:48.567Z,2.70
2023-04-24T19:29:15.364Z,2.57
2023-04-24T19:31:42.405Z,3.60
2023-04-24T19:34:09.768Z,3.00
2023-04-24T19:36:36.986Z,3.40
2023-04-24T19:39:03.991Z,2.80
2023-04-24T19:41:30.846Z,3.13
2023-04-24T19:43:57.745Z,3.10
2023-04-24T19:46:24.764Z,2.93
2023-04-24T19:48:51.908Z,3.80
2023-04-24T19:51:19.013Z,3.10
2023-04-24T19:53:45.884Z,3.23
2023-04-24T19:56:12.796Z,3.87
2023-04-24T19:58:39.632Z,3.70
2023-04-24T20:01:06.557Z,3.00
2023-04-24T20:03:34.492Z,3.63
2023-04-24T20:06:02.365Z,3.40
2023-04-24T20:08:29.179Z,2.90
2023-04-24T20:10:56.117Z,3.60
2023-04-24T20:13:23.510Z,2.63
2023-04-24T20:15:50.361Z,3.47
2023-04-24T20:18:17.244Z,3.30
2023-04-24T20:20:44.099Z,3.40
2023-04-24T20:23:11.008Z,3.20
2023-04-24T20:25:37.823Z,4.37
2023-04-24T20:28:04.665Z,3.90
2023-04-24T20:30:31.699Z,4.17
2023-04-24T20:32:59.292Z,3.67
2023-04-24T20:35:26.212Z,3.43
2023-04-24T20:37:53.091Z,4.33
2023-04-24T20:40:19.889Z,4.57
2023-04-24T20:42:46.700Z,4.83
2023-04-24T20:45:13.749Z,4.10
2023-04-24T20:47:40.567Z,3.30
2023-04-24T20:50:08.354Z,4.40
2023-04-24T20:52:35.307Z,3.43
2023-04-24T20:55:02.208Z,4.40
2023-04-24T20:57:29.232Z,4.30
2023-04-24T20:59:56.096Z,4.00
2023-04-24T21:02:23.009Z,3.60
2023-04-24T21:04:49.824Z,3.50
2023-04-24T21:07:17.033Z,3.00
2023-04-24T21:09:43.895Z,3.47
2023-04-24T21:12:10.792Z,3.33
2023-04-24T21:14:37.700Z,3.60
2023-04-24T21:17:04.614Z,3.30
2023-04-24T21:19:31.486Z,3.10
2023-04-24T21:21:58.288Z,3.33
2023-04-24T21:24:25.091Z,3.43
2023-04-24T21:26:51.969Z,3.07
2023-04-24T21:29:19.142Z,2.93
2023-04-24T21:31:46.236Z,2.97
2023-04-24T21:34:13.402Z,3.50
2023-04-24T21:36:40.880Z,3.20
2023-04-24T21:39:07.666Z,3.33
2023-04-24T21:41:34.560Z,3.00
2023-04-24T21:44:01.329Z,3.50
2023-04-24T21:46:28.330Z,3.17
2023-04-24T21:48:55.259Z,3.63
2023-04-24T21:51:22.136Z,3.10
2023-04-24T21:53:49.232Z,3.20
2023-04-24T21:56:16.627Z,3.23
2023-04-24T21:58:43.618Z,3.80
2023-04-24T22:01:10.609Z,2.83
2023-04-24T22:03:38.048Z,3.70
2023-04-24T22:06:05.275Z,3.33
2023-04-24T22:08:32.225Z,3.00
2023-04-24T22:10:59.114Z,3.20
2023-04-24T22:13:26.771Z,2.93
2023-04-24T22:15:53.706Z,3.23
2023-04-24T22:18:20.782Z,3.20
2023-04-24T22:20:47.655Z,2.50
2023-04-24T22:23:14.504Z,2.73
2023-04-24T22:25:41.429Z,3.40
2023-04-24T22:28:08.239Z,3.30
2023-04-24T22:30:35.145Z,3.40
2023-04-24T22:33:02.086Z,3.13
2023-04-24T22:35:28.972Z,2.90
2023-04-24T22:37:57.057Z,3.33
2023-04-24T22:40:25.639Z,3.17
2023-04-24T22:42:52.940Z,3.47
2023-04-24T22:45:19.811Z,2.73
2023-04-24T22:47:46.743Z,2.60
2023-04-24T22:50:13.601Z,3.37
2023-04-24T22:52:40.594Z,3.03
2023-04-24T22:55:08.280Z,3.23
2023-04-24T22:57:35.060Z,2.93
2023-04-24T23:00:08.214Z,3.00
2023-04-24T23:02:35.662Z,3.03
2023-04-24T23:05:02.672Z,2.63
2023-04-24T23:07:29.597Z,3.00
2023-04-24T23:09:56.441Z,3.50
2023-04-24T23:12:23.790Z,3.10
2023-04-24T23:14:50.783Z,3.03
2023-04-24T23:17:18.786Z,3.60
2023-04-24T23:19:45.732Z,3.30
2023-04-24T23:22:12.650Z,2.77
2023-04-24T23:24:39.633Z,2.93
2023-04-24T23:27:06.524Z,3.20
2023-04-24T23:29:33.389Z,3.10
2023-04-24T23:32:00.221Z,3.13
2023-04-24T23:34:27.271Z,3.10
2023-04-24T23:36:54.222Z,3.17
2023-04-24T23:39:21.328Z,2.70
2023-04-24T23:41:48.128Z,3.57
2023-04-24T23:44:15.032Z,3.20
2023-04-24T23:46:41.873Z,3.07
2023-04-24T23:49:08.725Z,3.53
2023-04-24T23:51:35.647Z,3.17
2023-04-24T23:54:02.630Z,3.17
2023-04-24T23:56:29.452Z,3.30
2023-04-24T23:58:56.625Z,3.13
